sensor_id;sensor_type;location;lat;lon;timestamp;temperature;humidity
65048;DHT22;52089;51.362;-2.384;2023-02-10T00:01:14;16.80;61.40
65048;DHT22;52089;51.362;-2.384;2023-02-10T00:04:59;16.70;61.30
65048;DHT22;52089;51.362;-2.384;2023-02-10T00:08:41;16.70;61.30
65048;DHT22;52089;51.362;-2.384;2023-02-10T00:12:23;16.70;61.30
65048;DHT22;52089;51.362;-2.384;2023-02-10T00:16:07;16.70;61.30
65048;DHT22;52089;51.362;-2.384;2023-02-10T00:19:49;16.70;61.20
65048;DHT22;52089;51.362;-2.384;2023-02-10T00:23:31;16.70;61.20
65048;DHT22;52089;51.362;-2.384;2023-02-10T00:27:13;16.70;61.20
65048;DHT22;52089;51.362;-2.384;2023-02-10T00:30:54;16.70;61.20
65048;DHT22;52089;51.362;-2.384;2023-02-10T00:34:36;16.70;61.10
65048;DHT22;52089;51.362;-2.384;2023-02-10T00:38:18;16.70;61.10
65048;DHT22;52089;51.362;-2.384;2023-02-10T00:42:00;16.70;61.10
65048;DHT22;52089;51.362;-2.384;2023-02-10T00:45:42;16.70;61.10
65048;DHT22;52089;51.362;-2.384;2023-02-10T00:49:24;16.70;61.00
65048;DHT22;52089;51.362;-2.384;2023-02-10T00:53:06;16.70;61.00
65048;DHT22;52089;51.362;-2.384;2023-02-10T00:56:47;16.70;61.00
65048;DHT22;52089;51.362;-2.384;2023-02-10T01:00:29;16.70;60.90
65048;DHT22;52089;51.362;-2.384;2023-02-10T01:04:11;16.70;60.90
65048;DHT22;52089;51.362;-2.384;2023-02-10T01:07:53;16.60;60.80
65048;DHT22;52089;51.362;-2.384;2023-02-10T01:11:35;16.60;60.80
65048;DHT22;52089;51.362;-2.384;2023-02-10T01:15:17;16.60;60.70
65048;DHT22;52089;51.362;-2.384;2023-02-10T01:18:59;16.60;60.80
65048;DHT22;52089;51.362;-2.384;2023-02-10T01:22:41;16.60;60.70
65048;DHT22;52089;51.362;-2.384;2023-02-10T01:26:24;16.60;60.70
65048;DHT22;52089;51.362;-2.384;2023-02-10T01:30:06;16.60;60.70
65048;DHT22;52089;51.362;-2.384;2023-02-10T01:33:51;16.60;60.60
65048;DHT22;52089;51.362;-2.384;2023-02-10T01:37:34;16.60;60.60
65048;DHT22;52089;51.362;-2.384;2023-02-10T01:41:21;16.60;60.50
65048;DHT22;52089;51.362;-2.384;2023-02-10T01:45:16;16.60;60.60
65048;DHT22;52089;51.362;-2.384;2023-02-10T01:49:02;16.60;60.50
65048;DHT22;52089;51.362;-2.384;2023-02-10T01:52:46;16.60;60.50
65048;DHT22;52089;51.362;-2.384;2023-02-10T01:56:28;16.60;60.50
65048;DHT22;52089;51.362;-2.384;2023-02-10T02:00:11;16.60;60.50
65048;DHT22;52089;51.362;-2.384;2023-02-10T02:03:53;16.50;60.40
65048;DHT22;52089;51.362;-2.384;2023-02-10T02:07:37;16.60;60.40
65048;DHT22;52089;51.362;-2.384;2023-02-10T02:11:33;16.50;60.30
65048;DHT22;52089;51.362;-2.384;2023-02-10T02:31:26;16.50;60.10
65048;DHT22;52089;51.362;-2.384;2023-02-10T02:35:14;16.50;60.10
65048;DHT22;52089;51.362;-2.384;2023-02-10T02:39:01;16.50;60.10
65048;DHT22;52089;51.362;-2.384;2023-02-10T02:42:43;16.50;60.10
65048;DHT22;52089;51.362;-2.384;2023-02-10T02:46:52;16.50;60.10
65048;DHT22;52089;51.362;-2.384;2023-02-10T02:51:36;16.50;60.10
65048;DHT22;52089;51.362;-2.384;2023-02-10T02:59:43;16.50;60.10
65048;DHT22;52089;51.362;-2.384;2023-02-10T03:03:26;16.50;60.10
65048;DHT22;52089;51.362;-2.384;2023-02-10T03:07:07;16.40;60.00
65048;DHT22;52089;51.362;-2.384;2023-02-10T03:10:49;16.40;60.00
65048;DHT22;52089;51.362;-2.384;2023-02-10T03:14:31;16.40;60.00
65048;DHT22;52089;51.362;-2.384;2023-02-10T03:18:13;16.40;60.00
65048;DHT22;52089;51.362;-2.384;2023-02-10T03:21:54;16.50;60.10
65048;DHT22;52089;51.362;-2.384;2023-02-10T03:30:52;16.40;59.90
65048;DHT22;52089;51.362;-2.384;2023-02-10T03:34:34;16.40;59.90
65048;DHT22;52089;51.362;-2.384;2023-02-10T03:38:16;16.40;59.80
65048;DHT22;52089;51.362;-2.384;2023-02-10T03:41:57;16.40;59.80
65048;DHT22;52089;51.362;-2.384;2023-02-10T03:45:39;16.40;59.80
65048;DHT22;52089;51.362;-2.384;2023-02-10T03:49:21;16.40;59.80
65048;DHT22;52089;51.362;-2.384;2023-02-10T03:53:03;16.40;59.70
65048;DHT22;52089;51.362;-2.384;2023-02-10T03:56:45;16.40;59.70
65048;DHT22;52089;51.362;-2.384;2023-02-10T04:00:29;16.40;59.70
65048;DHT22;52089;51.362;-2.384;2023-02-10T04:04:11;16.40;59.60
65048;DHT22;52089;51.362;-2.384;2023-02-10T04:07:52;16.30;59.60
65048;DHT22;52089;51.362;-2.384;2023-02-10T04:11:34;16.30;59.60
65048;DHT22;52089;51.362;-2.384;2023-02-10T04:15:16;16.40;59.60
65048;DHT22;52089;51.362;-2.384;2023-02-10T04:18:58;16.30;59.50
65048;DHT22;52089;51.362;-2.384;2023-02-10T04:22:40;16.30;59.50
65048;DHT22;52089;51.362;-2.384;2023-02-10T04:26:24;16.30;59.50
65048;DHT22;52089;51.362;-2.384;2023-02-10T04:30:07;16.30;59.40
65048;DHT22;52089;51.362;-2.384;2023-02-10T04:33:49;16.30;59.40
65048;DHT22;52089;51.362;-2.384;2023-02-10T04:37:31;16.30;59.40
65048;DHT22;52089;51.362;-2.384;2023-02-10T04:41:12;16.30;59.40
65048;DHT22;52089;51.362;-2.384;2023-02-10T04:44:55;16.30;59.30
65048;DHT22;52089;51.362;-2.384;2023-02-10T04:48:37;16.30;59.30
65048;DHT22;52089;51.362;-2.384;2023-02-10T04:52:19;16.30;59.30
65048;DHT22;52089;51.362;-2.384;2023-02-10T04:56:00;16.30;59.30
65048;DHT22;52089;51.362;-2.384;2023-02-10T04:59:42;16.30;59.30
65048;DHT22;52089;51.362;-2.384;2023-02-10T05:03:25;16.30;59.40
65048;DHT22;52089;51.362;-2.384;2023-02-10T05:07:06;16.30;59.30
65048;DHT22;52089;51.362;-2.384;2023-02-10T05:10:50;16.30;59.20
65048;DHT22;52089;51.362;-2.384;2023-02-10T05:14:32;16.30;59.10
65048;DHT22;52089;51.362;-2.384;2023-02-10T05:18:14;16.30;59.10
65048;DHT22;52089;51.362;-2.384;2023-02-10T05:21:56;16.30;59.10
65048;DHT22;52089;51.362;-2.384;2023-02-10T05:25:38;16.20;59.20
65048;DHT22;52089;51.362;-2.384;2023-02-10T05:29:20;16.20;59.10
65048;DHT22;52089;51.362;-2.384;2023-02-10T05:33:02;16.30;59.20
65048;DHT22;52089;51.362;-2.384;2023-02-10T05:36:44;16.20;59.00
65048;DHT22;52089;51.362;-2.384;2023-02-10T05:40:26;16.20;59.00
65048;DHT22;52089;51.362;-2.384;2023-02-10T05:44:07;16.30;59.10
65048;DHT22;52089;51.362;-2.384;2023-02-10T05:47:50;16.20;59.00
65048;DHT22;52089;51.362;-2.384;2023-02-10T05:51:32;16.20;59.00
65048;DHT22;52089;51.362;-2.384;2023-02-10T05:55:14;16.20;59.00
65048;DHT22;52089;51.362;-2.384;2023-02-10T05:58:56;16.30;59.00
65048;DHT22;52089;51.362;-2.384;2023-02-10T06:02:39;16.20;59.00
65048;DHT22;52089;51.362;-2.384;2023-02-10T06:06:21;16.20;58.90
65048;DHT22;52089;51.362;-2.384;2023-02-10T06:10:03;16.20;59.00
65048;DHT22;52089;51.362;-2.384;2023-02-10T06:13:45;16.20;58.90
65048;DHT22;52089;51.362;-2.384;2023-02-10T06:17:28;16.20;58.90
65048;DHT22;52089;51.362;-2.384;2023-02-10T06:21:16;16.20;58.80
65048;DHT22;52089;51.362;-2.384;2023-02-10T06:24:57;16.20;59.50
65048;DHT22;52089;51.362;-2.384;2023-02-10T06:28:39;16.20;58.80
65048;DHT22;52089;51.362;-2.384;2023-02-10T06:32:22;16.20;58.80
65048;DHT22;52089;51.362;-2.384;2023-02-10T06:36:08;16.20;58.80
65048;DHT22;52089;51.362;-2.384;2023-02-10T06:39:50;16.20;58.90
65048;DHT22;52089;51.362;-2.384;2023-02-10T06:43:32;16.20;58.80
65048;DHT22;52089;51.362;-2.384;2023-02-10T06:47:14;16.20;58.80
65048;DHT22;52089;51.362;-2.384;2023-02-10T06:50:56;16.20;58.80
65048;DHT22;52089;51.362;-2.384;2023-02-10T06:54:37;16.20;58.80
65048;DHT22;52089;51.362;-2.384;2023-02-10T06:58:20;16.20;58.80
65048;DHT22;52089;51.362;-2.384;2023-02-10T07:02:01;16.20;58.80
65048;DHT22;52089;51.362;-2.384;2023-02-10T07:05:43;16.10;58.70
65048;DHT22;52089;51.362;-2.384;2023-02-10T07:09:25;16.20;58.70
65048;DHT22;52089;51.362;-2.384;2023-02-10T07:13:07;16.20;58.70
65048;DHT22;52089;51.362;-2.384;2023-02-10T07:16:49;16.10;58.60
65048;DHT22;52089;51.362;-2.384;2023-02-10T07:20:31;16.10;58.60
65048;DHT22;52089;51.362;-2.384;2023-02-10T07:24:13;16.10;58.60
65048;DHT22;52089;51.362;-2.384;2023-02-10T07:27:56;16.10;58.60
65048;DHT22;52089;51.362;-2.384;2023-02-10T07:31:38;16.10;58.60
65048;DHT22;52089;51.362;-2.384;2023-02-10T07:35:20;16.10;58.60
65048;DHT22;52089;51.362;-2.384;2023-02-10T07:39:04;16.10;58.60
65048;DHT22;52089;51.362;-2.384;2023-02-10T07:42:45;16.10;58.60
65048;DHT22;52089;51.362;-2.384;2023-02-10T07:46:27;16.10;58.60
65048;DHT22;52089;51.362;-2.384;2023-02-10T07:50:09;16.10;58.60
65048;DHT22;52089;51.362;-2.384;2023-02-10T07:53:52;16.10;58.60
65048;DHT22;52089;51.362;-2.384;2023-02-10T07:57:33;16.10;58.60
65048;DHT22;52089;51.362;-2.384;2023-02-10T08:01:15;16.10;58.60
65048;DHT22;52089;51.362;-2.384;2023-02-10T08:04:57;16.10;58.60
65048;DHT22;52089;51.362;-2.384;2023-02-10T08:08:40;16.10;58.60
65048;DHT22;52089;51.362;-2.384;2023-02-10T08:12:22;16.10;58.60
65048;DHT22;52089;51.362;-2.384;2023-02-10T08:16:05;16.10;58.60
65048;DHT22;52089;51.362;-2.384;2023-02-10T08:19:49;16.10;58.60
65048;DHT22;52089;51.362;-2.384;2023-02-10T08:23:31;16.10;58.60
65048;DHT22;52089;51.362;-2.384;2023-02-10T08:27:13;16.10;58.60
65048;DHT22;52089;51.362;-2.384;2023-02-10T08:30:59;16.10;58.60
65048;DHT22;52089;51.362;-2.384;2023-02-10T08:34:41;16.10;58.60
65048;DHT22;52089;51.362;-2.384;2023-02-10T08:38:23;16.10;58.60
65048;DHT22;52089;51.362;-2.384;2023-02-10T08:42:05;16.10;58.50
65048;DHT22;52089;51.362;-2.384;2023-02-10T08:45:47;16.10;58.60
65048;DHT22;52089;51.362;-2.384;2023-02-10T08:49:29;16.10;58.80
65048;DHT22;52089;51.362;-2.384;2023-02-10T08:53:11;16.10;58.90
65048;DHT22;52089;51.362;-2.384;2023-02-10T08:56:54;16.10;59.00
65048;DHT22;52089;51.362;-2.384;2023-02-10T09:00:36;16.10;59.10
65048;DHT22;52089;51.362;-2.384;2023-02-10T09:04:18;16.10;59.10
65048;DHT22;52089;51.362;-2.384;2023-02-10T09:08:00;16.10;59.20
65048;DHT22;52089;51.362;-2.384;2023-02-10T09:11:42;16.10;59.30
65048;DHT22;52089;51.362;-2.384;2023-02-10T09:15:24;16.20;59.40
65048;DHT22;52089;51.362;-2.384;2023-02-10T09:19:06;16.20;59.40
65048;DHT22;52089;51.362;-2.384;2023-02-10T09:22:48;16.20;59.40
65048;DHT22;52089;51.362;-2.384;2023-02-10T09:26:31;16.20;59.40
65048;DHT22;52089;51.362;-2.384;2023-02-10T09:30:13;16.30;59.40
65048;DHT22;52089;51.362;-2.384;2023-02-10T09:33:55;16.30;59.30
65048;DHT22;52089;51.362;-2.384;2023-02-10T09:37:36;16.30;59.30
65048;DHT22;52089;51.362;-2.384;2023-02-10T09:45:21;16.30;59.30
65048;DHT22;52089;51.362;-2.384;2023-02-10T09:49:15;16.30;59.30
65048;DHT22;52089;51.362;-2.384;2023-02-10T09:53:19;16.30;59.30
65048;DHT22;52089;51.362;-2.384;2023-02-10T09:57:14;16.40;59.30
65048;DHT22;52089;51.362;-2.384;2023-02-10T10:01:38;16.40;59.30
65048;DHT22;52089;51.362;-2.384;2023-02-10T10:09:45;16.40;59.30
65048;DHT22;52089;51.362;-2.384;2023-02-10T10:13:28;16.40;59.20
65048;DHT22;52089;51.362;-2.384;2023-02-10T10:17:15;16.40;59.20
65048;DHT22;52089;51.362;-2.384;2023-02-10T10:21:09;16.40;59.20
65048;DHT22;52089;51.362;-2.384;2023-02-10T10:33:40;16.40;59.10
65048;DHT22;52089;51.362;-2.384;2023-02-10T10:37:25;16.40;59.10
65048;DHT22;52089;51.362;-2.384;2023-02-10T10:41:11;16.40;59.10
65048;DHT22;52089;51.362;-2.384;2023-02-10T10:44:59;16.40;59.10
65048;DHT22;52089;51.362;-2.384;2023-02-10T10:48:42;16.40;59.10
65048;DHT22;52089;51.362;-2.384;2023-02-10T10:52:33;16.40;59.10
65048;DHT22;52089;51.362;-2.384;2023-02-10T10:56:26;16.40;59.10
65048;DHT22;52089;51.362;-2.384;2023-02-10T11:00:22;16.40;59.10
65048;DHT22;52089;51.362;-2.384;2023-02-10T11:04:24;16.40;59.90
65048;DHT22;52089;51.362;-2.384;2023-02-10T11:08:07;16.40;59.30
65048;DHT22;52089;51.362;-2.384;2023-02-10T11:11:50;16.50;59.30
65048;DHT22;52089;51.362;-2.384;2023-02-10T11:15:42;16.40;59.30
65048;DHT22;52089;51.362;-2.384;2023-02-10T11:19:28;16.40;59.40
65048;DHT22;52089;51.362;-2.384;2023-02-10T11:23:18;16.40;59.40
65048;DHT22;52089;51.362;-2.384;2023-02-10T11:27:02;16.50;59.50
65048;DHT22;52089;51.362;-2.384;2023-02-10T11:30:47;16.40;59.50
65048;DHT22;52089;51.362;-2.384;2023-02-10T11:34:42;16.50;59.60
65048;DHT22;52089;51.362;-2.384;2023-02-10T11:38:29;16.50;60.20
65048;DHT22;52089;51.362;-2.384;2023-02-10T11:42:20;16.50;59.60
65048;DHT22;52089;51.362;-2.384;2023-02-10T11:46:06;16.50;59.60
65048;DHT22;52089;51.362;-2.384;2023-02-10T11:49:51;16.50;59.70
65048;DHT22;52089;51.362;-2.384;2023-02-10T11:53:36;16.50;59.70
65048;DHT22;52089;51.362;-2.384;2023-02-10T11:57:33;16.50;59.70
65048;DHT22;52089;51.362;-2.384;2023-02-10T12:01:50;16.50;59.80
65048;DHT22;52089;51.362;-2.384;2023-02-10T12:13:29;16.50;59.80
65048;DHT22;52089;51.362;-2.384;2023-02-10T12:17:30;16.50;59.80
65048;DHT22;52089;51.362;-2.384;2023-02-10T12:25:28;16.50;59.90
65048;DHT22;52089;51.362;-2.384;2023-02-10T12:49:18;16.50;60.10
65048;DHT22;52089;51.362;-2.384;2023-02-10T12:53:17;16.60;60.20
65048;DHT22;52089;51.362;-2.384;2023-02-10T12:57:06;16.50;60.10
65048;DHT22;52089;51.362;-2.384;2023-02-10T13:04:56;16.60;60.20
65048;DHT22;52089;51.362;-2.384;2023-02-10T13:08:45;16.50;60.10
65048;DHT22;52089;51.362;-2.384;2023-02-10T13:12:35;16.60;60.20
65048;DHT22;52089;51.362;-2.384;2023-02-10T13:16:24;16.60;60.20
65048;DHT22;52089;51.362;-2.384;2023-02-10T13:24:26;16.60;60.20
65048;DHT22;52089;51.362;-2.384;2023-02-10T13:28:54;16.50;60.10
65048;DHT22;52089;51.362;-2.384;2023-02-10T13:36:25;16.60;60.40
65048;DHT22;52089;51.362;-2.384;2023-02-10T13:43:57;16.50;60.70
65048;DHT22;52089;51.362;-2.384;2023-02-10T13:47:47;16.50;60.90
65048;DHT22;52089;51.362;-2.384;2023-02-10T13:51:32;16.50;61.20
65048;DHT22;52089;51.362;-2.384;2023-02-10T13:58:58;16.70;61.20
65048;DHT22;52089;51.362;-2.384;2023-02-10T14:02:40;16.60;61.20
65048;DHT22;52089;51.362;-2.384;2023-02-10T14:06:33;16.70;61.30
65048;DHT22;52089;51.362;-2.384;2023-02-10T14:14:18;16.70;61.40
65048;DHT22;52089;51.362;-2.384;2023-02-10T14:18:23;16.70;61.50
65048;DHT22;52089;51.362;-2.384;2023-02-10T14:22:17;16.80;61.50
65048;DHT22;52089;51.362;-2.384;2023-02-10T14:26:05;16.80;61.50
65048;DHT22;52089;51.362;-2.384;2023-02-10T14:29:52;16.80;61.60
65048;DHT22;52089;51.362;-2.384;2023-02-10T14:33:34;16.80;61.60
65048;DHT22;52089;51.362;-2.384;2023-02-10T14:37:18;16.80;61.60
65048;DHT22;52089;51.362;-2.384;2023-02-10T14:41:00;16.80;61.60
65048;DHT22;52089;51.362;-2.384;2023-02-10T14:45:01;16.80;61.60
65048;DHT22;52089;51.362;-2.384;2023-02-10T14:48:43;16.80;61.60
65048;DHT22;52089;51.362;-2.384;2023-02-10T14:52:34;16.80;61.60
65048;DHT22;52089;51.362;-2.384;2023-02-10T14:56:26;16.80;61.60
65048;DHT22;52089;51.362;-2.384;2023-02-10T15:00:13;16.80;61.70
65048;DHT22;52089;51.362;-2.384;2023-02-10T15:03:55;16.80;61.70
65048;DHT22;52089;51.362;-2.384;2023-02-10T15:07:41;16.90;61.80
65048;DHT22;52089;51.362;-2.384;2023-02-10T15:11:47;16.90;61.80
65048;DHT22;52089;51.362;-2.384;2023-02-10T15:15:50;16.90;61.70
65048;DHT22;52089;51.362;-2.384;2023-02-10T15:19:33;16.90;61.80
65048;DHT22;52089;51.362;-2.384;2023-02-10T15:23:17;16.90;61.90
65048;DHT22;52089;51.362;-2.384;2023-02-10T15:27:16;16.90;61.80
65048;DHT22;52089;51.362;-2.384;2023-02-10T15:35:05;16.90;62.10
65048;DHT22;52089;51.362;-2.384;2023-02-10T15:38:58;16.90;62.30
65048;DHT22;52089;51.362;-2.384;2023-02-10T15:42:41;16.90;62.40
65048;DHT22;52089;51.362;-2.384;2023-02-10T15:46:25;16.90;62.50
65048;DHT22;52089;51.362;-2.384;2023-02-10T15:50:09;16.90;62.60
65048;DHT22;52089;51.362;-2.384;2023-02-10T15:53:54;17.00;62.90
65048;DHT22;52089;51.362;-2.384;2023-02-10T15:57:37;17.00;63.00
65048;DHT22;52089;51.362;-2.384;2023-02-10T16:01:19;17.00;63.20
65048;DHT22;52089;51.362;-2.384;2023-02-10T16:05:00;17.10;63.20
65048;DHT22;52089;51.362;-2.384;2023-02-10T16:08:43;17.10;63.30
65048;DHT22;52089;51.362;-2.384;2023-02-10T16:12:26;17.10;63.30
65048;DHT22;52089;51.362;-2.384;2023-02-10T16:16:13;17.20;63.40
65048;DHT22;52089;51.362;-2.384;2023-02-10T16:19:57;17.20;63.50
65048;DHT22;52089;51.362;-2.384;2023-02-10T16:23:39;17.20;63.40
65048;DHT22;52089;51.362;-2.384;2023-02-10T16:27:21;17.30;63.50
65048;DHT22;52089;51.362;-2.384;2023-02-10T16:31:03;17.30;63.60
65048;DHT22;52089;51.362;-2.384;2023-02-10T16:34:45;17.30;63.70
65048;DHT22;52089;51.362;-2.384;2023-02-10T16:38:27;17.30;63.70
65048;DHT22;52089;51.362;-2.384;2023-02-10T16:42:09;17.40;63.60
65048;DHT22;52089;51.362;-2.384;2023-02-10T16:45:50;17.40;63.60
65048;DHT22;52089;51.362;-2.384;2023-02-10T16:49:33;17.40;63.80
65048;DHT22;52089;51.362;-2.384;2023-02-10T16:53:15;17.40;63.80
65048;DHT22;52089;51.362;-2.384;2023-02-10T16:56:57;17.50;64.00
65048;DHT22;52089;51.362;-2.384;2023-02-10T17:00:39;17.50;63.70
65048;DHT22;52089;51.362;-2.384;2023-02-10T17:04:20;17.50;63.60
65048;DHT22;52089;51.362;-2.384;2023-02-10T17:08:03;17.50;63.60
65048;DHT22;52089;51.362;-2.384;2023-02-10T17:11:45;17.60;64.00
65048;DHT22;52089;51.362;-2.384;2023-02-10T17:15:27;17.50;63.00
65048;DHT22;52089;51.362;-2.384;2023-02-10T17:19:11;17.50;63.30
65048;DHT22;52089;51.362;-2.384;2023-02-10T17:22:54;17.40;63.60
65048;DHT22;52089;51.362;-2.384;2023-02-10T17:26:37;17.40;63.70
65048;DHT22;52089;51.362;-2.384;2023-02-10T17:30:26;17.40;63.70
65048;DHT22;52089;51.362;-2.384;2023-02-10T17:34:09;17.40;63.80
65048;DHT22;52089;51.362;-2.384;2023-02-10T17:37:51;17.40;63.80
65048;DHT22;52089;51.362;-2.384;2023-02-10T17:42:06;17.40;63.90
65048;DHT22;52089;51.362;-2.384;2023-02-10T17:45:49;17.40;64.10
65048;DHT22;52089;51.362;-2.384;2023-02-10T17:49:32;17.40;64.10
65048;DHT22;52089;51.362;-2.384;2023-02-10T17:53:14;17.40;63.90
65048;DHT22;52089;51.362;-2.384;2023-02-10T17:56:57;17.50;64.00
65048;DHT22;52089;51.362;-2.384;2023-02-10T18:00:40;17.50;63.90
65048;DHT22;52089;51.362;-2.384;2023-02-10T18:04:22;17.50;63.90
65048;DHT22;52089;51.362;-2.384;2023-02-10T18:08:04;17.50;63.90
65048;DHT22;52089;51.362;-2.384;2023-02-10T18:11:46;17.50;63.90
65048;DHT22;52089;51.362;-2.384;2023-02-10T18:15:28;17.50;63.80
65048;DHT22;52089;51.362;-2.384;2023-02-10T18:19:10;17.50;63.80
65048;DHT22;52089;51.362;-2.384;2023-02-10T18:22:52;17.50;63.80
65048;DHT22;52089;51.362;-2.384;2023-02-10T18:26:36;17.50;63.90
65048;DHT22;52089;51.362;-2.384;2023-02-10T18:30:18;17.50;63.80
65048;DHT22;52089;51.362;-2.384;2023-02-10T18:34:00;17.50;63.80
65048;DHT22;52089;51.362;-2.384;2023-02-10T18:37:42;17.50;63.90
65048;DHT22;52089;51.362;-2.384;2023-02-10T18:41:26;17.50;63.90
65048;DHT22;52089;51.362;-2.384;2023-02-10T18:45:08;17.40;63.80
65048;DHT22;52089;51.362;-2.384;2023-02-10T18:48:50;17.50;63.90
65048;DHT22;52089;51.362;-2.384;2023-02-10T18:52:33;17.40;63.80
65048;DHT22;52089;51.362;-2.384;2023-02-10T18:56:17;17.40;63.80
65048;DHT22;52089;51.362;-2.384;2023-02-10T18:59:59;17.40;63.80
65048;DHT22;52089;51.362;-2.384;2023-02-10T19:03:41;17.40;63.80
65048;DHT22;52089;51.362;-2.384;2023-02-10T19:07:23;17.40;63.80
65048;DHT22;52089;51.362;-2.384;2023-02-10T19:11:08;17.40;63.80
65048;DHT22;52089;51.362;-2.384;2023-02-10T19:14:50;17.40;63.80
65048;DHT22;52089;51.362;-2.384;2023-02-10T19:18:32;17.40;63.80
65048;DHT22;52089;51.362;-2.384;2023-02-10T19:22:14;17.40;63.80
65048;DHT22;52089;51.362;-2.384;2023-02-10T19:25:56;17.40;63.80
65048;DHT22;52089;51.362;-2.384;2023-02-10T19:29:39;17.40;63.80
65048;DHT22;52089;51.362;-2.384;2023-02-10T19:33:21;17.40;63.80
65048;DHT22;52089;51.362;-2.384;2023-02-10T19:37:02;17.40;63.90
65048;DHT22;52089;51.362;-2.384;2023-02-10T19:40:44;17.30;63.80
65048;DHT22;52089;51.362;-2.384;2023-02-10T19:44:26;17.30;63.80
65048;DHT22;52089;51.362;-2.384;2023-02-10T19:48:08;17.30;63.80
65048;DHT22;52089;51.362;-2.384;2023-02-10T19:51:50;17.30;63.80
65048;DHT22;52089;51.362;-2.384;2023-02-10T19:55:31;17.30;63.90
65048;DHT22;52089;51.362;-2.384;2023-02-10T19:59:13;17.30;63.90
65048;DHT22;52089;51.362;-2.384;2023-02-10T20:02:55;17.30;63.90
65048;DHT22;52089;51.362;-2.384;2023-02-10T20:06:43;17.30;63.90
65048;DHT22;52089;51.362;-2.384;2023-02-10T20:10:25;17.30;63.90
65048;DHT22;52089;51.362;-2.384;2023-02-10T20:14:07;17.30;63.90
65048;DHT22;52089;51.362;-2.384;2023-02-10T20:17:52;17.30;63.90
65048;DHT22;52089;51.362;-2.384;2023-02-10T20:21:34;17.20;63.90
65048;DHT22;52089;51.362;-2.384;2023-02-10T20:25:16;17.30;64.00
65048;DHT22;52089;51.362;-2.384;2023-02-10T20:28:58;17.30;64.00
65048;DHT22;52089;51.362;-2.384;2023-02-10T20:32:39;17.20;64.00
65048;DHT22;52089;51.362;-2.384;2023-02-10T20:36:21;17.20;64.00
65048;DHT22;52089;51.362;-2.384;2023-02-10T20:40:03;17.20;64.00
65048;DHT22;52089;51.362;-2.384;2023-02-10T20:43:47;17.20;64.00
65048;DHT22;52089;51.362;-2.384;2023-02-10T20:47:30;17.20;64.10
65048;DHT22;52089;51.362;-2.384;2023-02-10T20:51:12;17.20;64.10
65048;DHT22;52089;51.362;-2.384;2023-02-10T20:54:54;17.20;64.00
65048;DHT22;52089;51.362;-2.384;2023-02-10T20:58:36;17.20;64.10
65048;DHT22;52089;51.362;-2.384;2023-02-10T21:02:17;17.20;64.10
65048;DHT22;52089;51.362;-2.384;2023-02-10T21:06:29;17.20;64.10
65048;DHT22;52089;51.362;-2.384;2023-02-10T21:10:10;17.20;64.10
65048;DHT22;52089;51.362;-2.384;2023-02-10T21:13:52;17.20;64.10
65048;DHT22;52089;51.362;-2.384;2023-02-10T21:17:35;17.20;64.20
65048;DHT22;52089;51.362;-2.384;2023-02-10T21:21:18;17.20;64.40
65048;DHT22;52089;51.362;-2.384;2023-02-10T21:25:01;17.20;64.50
65048;DHT22;52089;51.362;-2.384;2023-02-10T21:28:43;17.20;64.60
65048;DHT22;52089;51.362;-2.384;2023-02-10T21:32:25;17.20;64.60
65048;DHT22;52089;51.362;-2.384;2023-02-10T21:39:59;17.20;64.80
65048;DHT22;52089;51.362;-2.384;2023-02-10T21:43:43;17.20;64.70
65048;DHT22;52089;51.362;-2.384;2023-02-10T21:47:25;17.20;64.70
65048;DHT22;52089;51.362;-2.384;2023-02-10T21:51:06;17.20;64.80
65048;DHT22;52089;51.362;-2.384;2023-02-10T21:54:48;17.20;64.80
65048;DHT22;52089;51.362;-2.384;2023-02-10T21:58:30;17.30;64.80
65048;DHT22;52089;51.362;-2.384;2023-02-10T22:02:13;17.30;64.80
65048;DHT22;52089;51.362;-2.384;2023-02-10T22:05:55;17.30;64.90
65048;DHT22;52089;51.362;-2.384;2023-02-10T22:09:37;17.30;65.00
65048;DHT22;52089;51.362;-2.384;2023-02-10T22:13:19;17.30;64.90
65048;DHT22;52089;51.362;-2.384;2023-02-10T22:17:00;17.30;64.90
65048;DHT22;52089;51.362;-2.384;2023-02-10T22:20:42;17.30;64.90
65048;DHT22;52089;51.362;-2.384;2023-02-10T22:24:24;17.30;64.80
65048;DHT22;52089;51.362;-2.384;2023-02-10T22:28:06;17.30;64.80
65048;DHT22;52089;51.362;-2.384;2023-02-10T22:31:47;17.30;64.80
65048;DHT22;52089;51.362;-2.384;2023-02-10T22:35:34;17.30;64.80
65048;DHT22;52089;51.362;-2.384;2023-02-10T22:39:16;17.30;64.80
65048;DHT22;52089;51.362;-2.384;2023-02-10T22:42:59;17.30;64.80
65048;DHT22;52089;51.362;-2.384;2023-02-10T22:46:42;17.30;64.80
65048;DHT22;52089;51.362;-2.384;2023-02-10T22:50:23;17.30;64.80
65048;DHT22;52089;51.362;-2.384;2023-02-10T22:54:07;17.30;64.80
65048;DHT22;52089;51.362;-2.384;2023-02-10T22:57:50;17.30;64.70
65048;DHT22;52089;51.362;-2.384;2023-02-10T23:01:34;17.30;64.70
65048;DHT22;52089;51.362;-2.384;2023-02-10T23:05:17;17.30;64.70
65048;DHT22;52089;51.362;-2.384;2023-02-10T23:08:59;17.30;64.70
65048;DHT22;52089;51.362;-2.384;2023-02-10T23:12:42;17.30;64.80
65048;DHT22;52089;51.362;-2.384;2023-02-10T23:16:24;17.30;64.70
65048;DHT22;52089;51.362;-2.384;2023-02-10T23:20:07;17.20;64.70
65048;DHT22;52089;51.362;-2.384;2023-02-10T23:23:49;17.20;65.00
65048;DHT22;52089;51.362;-2.384;2023-02-10T23:27:31;17.30;64.80
65048;DHT22;52089;51.362;-2.384;2023-02-10T23:31:15;17.20;64.70
65048;DHT22;52089;51.362;-2.384;2023-02-10T23:34:58;17.30;64.80
65048;DHT22;52089;51.362;-2.384;2023-02-10T23:38:40;17.20;64.70
65048;DHT22;52089;51.362;-2.384;2023-02-10T23:42:22;17.20;64.70
65048;DHT22;52089;51.362;-2.384;2023-02-10T23:46:05;17.20;64.70
65048;DHT22;52089;51.362;-2.384;2023-02-10T23:49:51;17.20;64.70
65048;DHT22;52089;51.362;-2.384;2023-02-10T23:53:33;17.20;64.80
65048;DHT22;52089;51.362;-2.384;2023-02-10T23:57:15;17.30;64.80
